Time;durP1;ratioP1;P1;durP2;ratioP2;P2;SDS_P1;SDS_P2;PMS_P1;PMS_P2;Temp;Humidity;BMP_temperature;BMP_pressure;BME280_temperature;BME280_humidity;BME280_pressure;Samples;Min_cycle;Max_cycle;Signal;HPM_P1;HPM_P2
2022/09/29 00:01:02;;;;;;;18.40;9.65;;;;;;;18.36;70.17;99441.16;4980884;28;20049;-81
2022/09/29 00:03:29;;;;;;;20.42;11.05;;;;;;;18.27;69.90;99437.88;4960826;28;20687;-80
2022/09/29 00:05:56;;;;;;;20.95;10.43;;;;;;;18.12;70.08;99421.25;4957574;28;20054;-81
2022/09/29 00:08:25;;;;;;;17.50;9.70;;;;;;;18.21;70.52;99444.13;4957396;28;20054;-80
2022/09/29 00:10:52;;;;;;;23.65;10.55;;;;;;;17.92;70.41;99395.31;4956462;28;20519;-79
2022/09/29 00:13:20;;;;;;;15.65;9.73;;;;;;;18.13;70.82;99437.16;4956544;28;20054;-81
2022/09/29 00:15:58;;;;;;;19.95;10.10;;;;;;;18.11;70.56;99427.66;4956876;28;20262;-79
2022/09/29 00:18:26;;;;;;;21.20;10.27;;;;;;;18.02;70.52;99421.69;4958103;28;20066;-82
2022/09/29 00:21:02;;;;;;;21.50;10.45;;;;;;;17.83;70.82;99393.09;4955655;28;20491;-81
2022/09/29 00:23:31;;;;;;;22.10;10.50;;;;;;;17.63;70.71;99366.28;4956595;28;20076;-81
2022/09/29 00:26:03;;;;;;;17.10;10.27;;;;;;;17.97;71.30;99426.91;4957179;28;20358;-81
2022/09/29 00:28:31;;;;;;;20.70;9.63;;;;;;;17.78;71.81;99415.16;4957219;28;20049;-80
2022/09/29 00:31:00;;;;;;;23.10;10.82;;;;;;;17.72;71.41;99414.16;4957100;28;20101;-81
2022/09/29 00:33:35;;;;;;;22.80;10.07;;;;;;;17.32;71.93;99340.19;4960614;28;20521;-81
2022/09/29 00:36:13;;;;;;;18.83;10.05;;;;;;;18.02;70.91;99448.56;4960177;28;20149;-81
2022/09/29 00:38:41;;;;;;;21.58;10.65;;;;;;;17.95;71.00;99434.34;4956444;28;20144;-82
2022/09/29 00:41:23;;;;;;;19.33;10.23;;;;;;;17.78;70.25;99390.19;4957290;28;20057;-80
2022/09/29 00:43:56;;;;;;;16.83;9.90;;;;;;;18.00;70.51;99433.69;4955482;28;20085;-81
2022/09/29 00:46:32;;;;;;;23.63;9.85;;;;;;;17.96;71.09;99444.03;4955922;28;20054;-81
2022/09/29 00:49:07;;;;;;;19.92;10.63;;;;;;;17.33;70.71;99348.03;4956678;28;20678;-80
2022/09/29 00:51:37;;;;;;;23.80;10.43;;;;;;;17.94;70.31;99436.19;4958033;28;20423;-80
2022/09/29 00:54:06;;;;;;;21.10;10.85;;;;;;;17.59;70.59;99383.84;4958260;28;20050;-83
2022/09/29 00:56:34;;;;;;;22.15;9.82;;;;;;;17.94;70.41;99438.06;4948001;28;20232;-81
2022/09/29 00:59:06;;;;;;;17.20;10.70;;;;;;;17.79;71.06;99424.03;4966688;28;20691;-81
2022/09/29 01:01:32;;;;;;;21.83;10.93;;;;;;;17.90;71.03;99452.94;4972126;28;20050;-79
2022/09/29 01:04:04;;;;;;;26.85;13.15;;;;;;;17.93;70.26;99441.78;5015702;28;20130;-82
2022/09/29 01:06:54;;;;;;;28.52;12.38;;;;;;;17.85;70.77;99456.25;4990092;28;20714;-81
2022/09/29 01:09:34;;;;;;;34.40;18.90;;;;;;;17.70;71.20;99451.13;4987484;28;20492;-80
2022/09/29 01:12:03;;;;;;;33.75;22.67;;;;;;;17.84;71.31;99469.88;5004784;28;20064;-80
2022/09/29 01:14:31;;;;;;;25.75;13.85;;;;;;;17.70;70.59;99440.38;4987410;28;20057;-80
2022/09/29 01:16:58;;;;;;;20.55;13.27;;;;;;;17.80;70.90;99465.97;5003463;28;20168;-81
2022/09/29 01:19:31;;;;;;;19.42;12.98;;;;;;;17.81;71.15;99467.63;4987124;28;20439;-81
2022/09/29 01:22:24;;;;;;;23.77;12.60;;;;;;;17.81;70.59;99467.63;4987197;28;20053;-81
2022/09/29 01:24:55;;;;;;;22.83;12.98;;;;;;;17.68;71.01;99466.59;4985505;28;20520;-81
2022/09/29 01:27:27;;;;;;;25.45;13.30;;;;;;;17.73;70.82;99455.22;4987760;28;20064;-81
2022/09/29 01:30:27;;;;;;;23.83;12.43;;;;;;;17.55;71.49;99453.22;4986791;28;20495;-78
2022/09/29 01:33:04;;;;;;;19.50;11.93;;;;;;;17.45;70.75;99431.34;4986662;28;20049;-81
2022/09/29 01:35:45;;;;;;;28.17;12.90;;;;;;;17.67;70.23;99454.22;4986974;28;20068;-78
2022/09/29 01:38:38;;;;;;;23.70;12.60;;;;;;;17.61;70.58;99463.09;4986465;28;20322;-80
2022/09/29 01:41:33;;;;;;;27.92;13.18;;;;;;;17.27;71.28;99430.16;4986550;28;20560;-79
2022/09/29 01:44:05;;;;;;;25.27;13.82;;;;;;;17.46;71.32;99470.56;5003093;28;20053;-80
2022/09/29 01:46:51;;;;;;;;;;;;;;;17.45;71.52;99476.97;4987191;28;20339;-81
2022/09/29 01:49:21;;;;;;;24.83;15.80;;;;;;;17.44;71.22;99461.91;4987278;28;20052;-81
2022/09/29 01:51:54;;;;;;;31.02;15.35;;;;;;;17.54;70.97;99478.38;4986898;28;20555;-79
2022/09/29 01:54:29;;;;;;;23.15;14.98;;;;;;;17.60;70.78;99472.19;4987527;28;20053;-81
2022/09/29 01:57:09;;;;;;;24.02;15.40;;;;;;;17.52;70.91;99475.94;5007150;28;20053;-79
2022/09/29 02:00:01;;;;;;;27.08;16.65;;;;;;;17.49;70.77;99465.59;4990842;28;20051;-80
2022/09/29 02:02:33;;;;;;;;;;;;;;;17.42;71.37;99469.34;5007013;28;20053;-81
2022/09/29 02:05:04;;;;;;;29.05;17.75;;;;;;;17.29;71.14;99443.34;4990361;28;20501;-81
2022/09/29 02:07:35;;;;;;;32.60;16.92;;;;;;;17.27;71.62;99440.88;5008456;28;20534;-80
2022/09/29 02:10:33;;;;;;;31.83;17.83;;;;;;;17.42;71.00;99458.59;4990072;28;20499;-80
2022/09/29 02:13:04;;;;;;;32.03;19.48;;;;;;;17.43;71.42;99460.28;4990483;28;20254;-81
2022/09/29 02:15:35;;;;;;;34.45;18.67;;;;;;;17.39;70.62;99442.94;5006609;28;20045;-80
2022/09/29 02:18:09;;;;;;;31.40;17.90;;;;;;;17.43;70.95;99455.72;4990374;28;20061;-80
2022/09/29 02:20:36;;;;;;;36.40;19.63;;;;;;;17.42;70.95;99461.28;5007663;28;20316;-79
2022/09/29 02:23:03;;;;;;;32.65;17.48;;;;;;;17.40;70.96;99460.66;5008490;28;20164;-80
2022/09/29 02:25:36;;;;;;;27.02;18.63;;;;;;;17.37;70.54;99445.00;4989795;28;20254;-81
2022/09/29 02:28:04;;;;;;;30.85;18.73;;;;;;;17.10;70.94;99412.84;5007774;28;20049;-79
2022/09/29 02:30:31;;;;;;;32.65;20.20;;;;;;;17.36;71.06;99464.81;4989917;28;20246;-80
2022/09/29 02:32:57;;;;;;;30.15;20.23;;;;;;;17.26;71.50;99449.97;4989916;28;20495;-79
2022/09/29 02:35:32;;;;;;;39.78;20.08;;;;;;;17.39;71.56;99454.47;4989836;28;20085;-80
2022/09/29 02:38:15;;;;;;;38.78;19.10;;;;;;;17.15;71.29;99407.69;4990162;28;20065;-81
2022/09/29 02:41:11;;;;;;;32.22;19.60;;;;;;;17.35;71.57;99433.66;4989463;28;20045;-80
2022/09/29 02:44:08;;;;;;;34.45;21.23;;;;;;;16.04;71.66;99231.47;4989616;28;20876;-80
2022/09/29 02:47:05;;;;;;;35.38;20.83;;;;;;;17.38;71.27;99446.63;4989458;28;20050;-80
2022/09/29 02:49:53;;;;;;;40.63;20.52;;;;;;;17.42;71.41;99453.25;5007412;28;20045;-80
2022/09/29 02:52:32;;;;;;;36.17;22.75;;;;;;;17.42;71.40;99450.56;4989052;28;20057;-79
2022/09/29 02:55:11;;;;;;;34.70;21.85;;;;;;;17.43;71.21;99449.53;5006077;28;20542;-79
2022/09/29 02:57:40;;;;;;;37.17;22.10;;;;;;;17.45;71.59;99450.97;4989822;28;20516;-80
2022/09/29 03:00:10;;;;;;;33.95;21.20;;;;;;;17.26;71.68;99431.19;4990151;28;20057;-80
2022/09/29 03:02:39;;;;;;;32.28;21.45;;;;;;;17.03;71.59;99401.28;4993641;28;20054;-81
2022/09/29 03:05:12;;;;;;;39.83;22.77;;;;;;;17.37;71.79;99448.50;4983284;28;20526;-80
2022/09/29 03:07:39;;;;;;;48.95;22.92;;;;;;;17.35;72.24;99447.06;4994726;28;20051;-82
2022/09/29 03:10:07;;;;;;;37.83;23.63;;;;;;;17.15;71.80;99409.53;4997555;28;20093;-81
2022/09/29 03:12:34;;;;;;;38.45;24.98;;;;;;;17.30;71.70;99429.72;4990774;28;20058;-80
2022/09/29 03:15:01;;;;;;;43.63;24.27;;;;;;;17.28;71.73;99417.56;4987983;28;20156;-81
2022/09/29 03:17:28;;;;;;;45.85;25.45;;;;;;;17.39;72.27;99441.06;4987111;28;20373;-81
2022/09/29 03:19:54;;;;;;;37.80;24.65;;;;;;;17.27;71.41;99403.31;4987242;28;20051;-81
2022/09/29 03:22:21;;;;;;;37.55;23.88;;;;;;;17.57;70.90;99445.75;4987308;28;20140;-80
2022/09/29 03:24:48;;;;;;;42.47;26.58;;;;;;;17.63;70.62;99444.94;4987080;28;20488;-80
2022/09/29 03:27:14;;;;;;;46.28;26.85;;;;;;;17.63;70.67;99439.56;4987285;28;20285;-80
2022/09/29 03:29:41;;;;;;;45.28;26.10;;;;;;;17.70;70.59;99445.75;4987098;28;20481;-80
2022/09/29 03:32:09;;;;;;;43.47;25.63;;;;;;;17.66;71.08;99443.69;4988454;28;20054;-79
2022/09/29 03:34:35;;;;;;;45.28;25.60;;;;;;;17.49;71.35;99443.31;4988754;28;20100;-79
2022/09/29 03:37:03;;;;;;;40.20;26.27;;;;;;;17.54;71.41;99456.94;4987741;28;20125;-80
2022/09/29 03:39:29;;;;;;;50.53;28.40;;;;;;;17.48;71.59;99457.78;4986923;28;20038;-79
2022/09/29 03:41:56;;;;;;;42.72;26.25;;;;;;;17.49;71.33;99454.06;4986693;28;20050;-78
2022/09/29 03:44:23;;;;;;;44.78;25.42;;;;;;;17.39;71.16;99426.84;4986540;28;20502;-80
2022/09/29 03:46:49;;;;;;;49.50;25.55;;;;;;;17.59;71.09;99459.81;4986789;28;20129;-80
2022/09/29 03:49:16;;;;;;;40.58;24.30;;;;;;;17.51;71.29;99447.44;4986416;28;20058;-80
2022/09/29 03:51:43;;;;;;;47.40;24.27;;;;;;;17.53;70.85;99441.88;4986646;28;20050;-81
2022/09/29 03:54:10;;;;;;;39.60;23.17;;;;;;;17.49;71.09;99467.47;4986481;28;20162;-79
2022/09/29 03:56:37;;;;;;;43.50;24.85;;;;;;;17.40;71.32;99444.56;4986652;28;20066;-78
2022/09/29 03:59:07;;;;;;;38.03;23.35;;;;;;;17.42;71.55;99447.88;4987525;28;20050;-79
2022/09/29 04:01:34;;;;;;;42.97;25.10;;;;;;;17.28;71.82;99430.97;4986679;28;20149;-78
2022/09/29 04:04:01;;;;;;;38.20;23.33;;;;;;;17.09;72.19;99406.66;5009479;28;20049;-78
2022/09/29 04:06:28;;;;;;;42.90;24.20;;;;;;;17.33;72.11;99454.47;5009511;28;20053;-80
2022/09/29 04:08:54;;;;;;;38.58;23.55;;;;;;;17.17;71.97;99432.44;5009161;28;20409;-79
2022/09/29 04:11:21;;;;;;;42.15;24.30;;;;;;;17.08;71.57;99415.72;5009211;28;20056;-79
2022/09/29 04:13:48;;;;;;;43.20;23.55;;;;;;;17.29;71.67;99454.91;5008888;28;20053;-79
2022/09/29 04:16:14;;;;;;;34.40;22.50;;;;;;;17.37;71.03;99463.78;5009135;28;20085;-79
2022/09/29 04:18:41;;;;;;;42.90;23.35;;;;;;;17.28;71.20;99452.41;5008878;28;20397;-79
2022/09/29 04:21:08;;;;;;;39.28;22.58;;;;;;;17.36;71.44;99464.81;5009175;28;20052;-79
2022/09/29 04:23:35;;;;;;;33.20;22.42;;;;;;;17.14;71.56;99440.91;5008901;28;20095;-80
2022/09/29 04:26:02;;;;;;;47.10;23.98;;;;;;;17.09;71.49;99429.97;5009065;28;20046;-79
2022/09/29 04:28:34;;;;;;;41.97;24.40;;;;;;;17.21;71.76;99457.81;5009271;28;20060;-79
2022/09/29 04:31:01;;;;;;;36.17;23.13;;;;;;;17.19;71.32;99456.38;5009147;28;20057;-79
2022/09/29 04:33:30;;;;;;;33.15;22.38;;;;;;;17.22;71.76;99475.53;5024984;28;20049;-80
2022/09/29 04:35:58;;;;;;;34.60;21.67;;;;;;;16.99;71.82;99432.22;5009167;28;20087;-79
2022/09/29 04:38:25;;;;;;;36.28;22.73;;;;;;;17.07;71.88;99443.56;5008690;28;20398;-79
2022/09/29 04:40:51;;;;;;;38.72;23.67;;;;;;;17.18;71.87;99460.06;5009341;28;20053;-79
2022/09/29 04:43:18;;;;;;;45.97;23.50;;;;;;;16.63;72.27;99380.66;5008645;28;20132;-79
2022/09/29 04:45:45;;;;;;;40.22;23.33;;;;;;;17.11;72.38;99451.19;5008797;28;20132;-79
2022/09/29 04:48:11;;;;;;;39.40;23.45;;;;;;;16.78;71.89;99399.25;5008444;28;20144;-79
2022/09/29 04:50:39;;;;;;;40.45;23.63;;;;;;;17.16;71.51;99460.28;5008425;28;20576;-78
2022/09/29 04:53:06;;;;;;;37.83;22.63;;;;;;;17.00;71.47;99445.44;5005447;28;20045;-79
2022/09/29 04:55:33;;;;;;;31.08;21.75;;;;;;;16.96;71.32;99443.38;5008611;28;20060;-78
2022/09/29 04:58:00;;;;;;;35.85;23.75;;;;;;;17.02;71.45;99447.91;5026481;28;20061;-78
2022/09/29 05:00:26;;;;;;;39.05;23.33;;;;;;;16.77;71.68;99413.66;5008816;28;20045;-78
2022/09/29 05:02:53;;;;;;;43.50;23.67;;;;;;;17.01;71.14;99451.63;5008285;28;20509;-77
2022/09/29 05:05:20;;;;;;;42.90;22.65;;;;;;;16.87;71.39;99445.44;5008443;28;20061;-80
2022/09/29 05:07:47;;;;;;;39.75;23.35;;;;;;;16.75;71.78;99437.16;5008201;28;20141;-81
2022/09/29 05:10:14;;;;;;;42.13;23.08;;;;;;;16.65;72.42;99429.53;5024277;28;20081;-81
2022/09/29 05:12:45;;;;;;;40.05;23.17;;;;;;;16.74;72.36;99437.34;5009328;28;20115;-78
2022/09/29 05:15:12;;;;;;;40.65;24.42;;;;;;;16.90;71.96;99446.88;5014513;28;20046;-78
2022/09/29 05:17:39;;;;;;;39.88;24.83;;;;;;;16.88;71.92;99452.44;5033305;28;20555;-81
2022/09/29 05:20:06;;;;;;;48.22;24.95;;;;;;;16.85;71.89;99453.69;5016755;28;20075;-82
2022/09/29 05:22:32;;;;;;;42.85;25.25;;;;;;;16.57;72.35;99412.81;5010552;28;20065;-79
2022/09/29 05:24:59;;;;;;;39.55;23.77;;;;;;;16.53;72.18;99416.91;5008079;28;20136;-78
2022/09/29 05:27:25;;;;;;;39.97;25.65;;;;;;;16.82;72.07;99467.50;5008182;28;20536;-80
2022/09/29 05:29:52;;;;;;;43.95;24.10;;;;;;;16.74;72.66;99462.28;5008142;28;20097;-78
2022/09/29 05:32:19;;;;;;;40.67;25.27;;;;;;;16.71;72.28;99446.63;5011582;28;20489;-79
2022/09/29 05:34:45;;;;;;;45.97;26.15;;;;;;;16.64;72.38;99456.50;5011325;28;20495;-79
2022/09/29 05:37:12;;;;;;;41.75;24.35;;;;;;;16.33;72.63;99406.97;5011375;28;20054;-78
2022/09/29 05:39:39;;;;;;;41.83;24.73;;;;;;;16.54;72.56;99442.69;5012060;28;20077;-78
2022/09/29 05:42:10;;;;;;;35.78;25.27;;;;;;;16.67;72.93;99466.81;5012628;28;20056;-78
2022/09/29 05:44:36;;;;;;;40.05;25.40;;;;;;;16.60;72.84;99469.50;5011872;28;20492;-80
2022/09/29 05:47:03;;;;;;;40.97;25.08;;;;;;;16.65;72.78;99459.00;5028373;28;20184;-78
2022/09/29 05:49:31;;;;;;;44.65;25.33;;;;;;;16.75;72.40;99473.81;5012016;28;20057;-79
2022/09/29 05:51:59;;;;;;;39.13;26.88;;;;;;;16.79;72.36;99472.44;5011850;28;20080;-78
2022/09/29 05:54:26;;;;;;;44.08;25.95;;;;;;;16.66;71.97;99435.69;5028090;28;20124;-78
2022/09/29 05:56:53;;;;;;;46.25;27.33;;;;;;;16.82;72.42;99478.22;5011853;28;20061;-78
2022/09/29 05:59:20;;;;;;;51.95;29.20;;;;;;;16.62;72.50;99456.69;5011910;28;20053;-79
2022/09/29 06:01:47;;;;;;;36.58;26.80;;;;;;;16.78;72.19;99460.88;5027667;28;20361;-78
2022/09/29 06:04:16;;;;;;;49.75;28.95;;;;;;;16.61;72.56;99443.53;5011773;28;20056;-80
2022/09/29 06:06:43;;;;;;;42.97;26.73;;;;;;;16.83;72.67;99482.53;5028608;28;20053;-80
2022/09/29 06:09:10;;;;;;;42.35;26.17;;;;;;;16.74;72.57;99464.16;5011391;28;20524;-80
2022/09/29 06:11:36;;;;;;;41.78;25.75;;;;;;;16.87;72.51;99472.25;5012071;28;20390;-80
2022/09/29 06:14:03;;;;;;;39.58;27.50;;;;;;;16.71;72.87;99446.63;5011509;28;20077;-80
2022/09/29 06:16:31;;;;;;;44.25;26.00;;;;;;;16.56;72.79;99416.53;5011235;28;20085;-79
2022/09/29 06:19:00;;;;;;;46.78;28.50;;;;;;;16.92;72.15;99468.94;5029109;28;20045;-81
2022/09/29 06:21:28;;;;;;;40.15;26.95;;;;;;;16.68;72.48;99430.97;5027914;28;20050;-79
2022/09/29 06:23:56;;;;;;;42.58;27.00;;;;;;;16.89;72.15;99462.13;5011353;28;20079;-80
2022/09/29 06:26:24;;;;;;;41.65;26.55;;;;;;;16.80;71.20;99429.34;5011152;28;20481;-80
2022/09/29 06:28:52;;;;;;;41.63;28.08;;;;;;;17.05;71.32;99480.50;5027408;28;20111;-77
2022/09/29 06:31:25;;;;;;;41.85;25.90;;;;;;;16.66;71.67;99411.59;5027426;28;20079;-79
2022/09/29 06:33:52;;;;;;;41.90;26.17;;;;;;;16.91;71.69;99451.22;5027017;28;20410;-79
2022/09/29 06:39:10;;;;;;;46.30;24.17;;;;;;;17.08;71.40;99484.63;5029907;28;20140;-79
2022/09/29 06:41:37;;;;;;;37.90;24.58;;;;;;;16.96;71.27;99462.13;5011353;28;20077;-80
2022/09/29 06:44:03;;;;;;;36.78;23.48;;;;;;;17.01;71.60;99484.59;5010855;28;20651;-78
2022/09/29 06:46:30;;;;;;;45.22;23.85;;;;;;;16.92;72.15;99479.66;5010913;28;20088;-79
2022/09/29 06:48:57;;;;;;;36.97;24.17;;;;;;;16.77;71.65;99445.81;5010775;28;20076;-80
2022/09/29 06:51:24;;;;;;;40.25;23.38;;;;;;;16.99;71.71;99478.66;5027188;28;20057;-80
2022/09/29 06:54:06;;;;;;;37.70;24.88;;;;;;;16.88;71.69;99447.91;5012706;28;20535;-79
2022/09/29 06:56:38;;;;;;;34.50;24.52;;;;;;;17.00;71.94;99455.34;5028200;28;20120;-79
2022/09/29 06:59:05;;;;;;;36.88;24.67;;;;;;;17.08;71.99;99457.81;5010701;28;20153;-78
2022/09/29 07:01:32;;;;;;;35.85;23.83;;;;;;;17.06;71.94;99447.31;5010538;28;20140;-77
2022/09/29 07:04:01;;;;;;;40.20;23.95;;;;;;;17.29;71.60;99467.50;5010424;28;20089;-77
2022/09/29 07:06:29;;;;;;;33.65;22.15;;;;;;;17.14;70.73;99427.50;5010301;28;20103;-78
2022/09/29 07:08:57;;;;;;;36.17;22.13;;;;;;;17.42;70.69;99474.69;5010397;28;20270;-79
2022/09/29 07:11:25;;;;;;;33.03;22.42;;;;;;;17.36;70.67;99448.72;4963261;28;20185;-79
2022/09/29 07:13:52;;;;;;;33.85;22.17;;;;;;;17.57;70.27;99471.78;5020563;28;20049;-78
2022/09/29 07:16:48;;;;;;;33.88;21.17;;;;;;;17.78;70.35;99489.50;4952629;28;20069;-77
2022/09/29 07:19:16;;;;;;;29.70;21.17;;;;;;;17.71;69.96;99474.22;5004065;28;20046;-78
2022/09/29 07:21:46;;;;;;;32.25;22.55;;;;;;;17.84;69.94;99489.53;5006659;28;20049;-78
2022/09/29 07:24:12;;;;;;;35.67;22.27;;;;;;;17.96;69.94;99486.97;5008816;28;20112;-79
2022/09/29 07:26:39;;;;;;;35.65;22.00;;;;;;;17.91;69.66;99484.97;5012871;28;20149;-80
2022/09/29 07:29:06;;;;;;;31.92;20.98;;;;;;;17.92;70.01;99483.09;5013723;28;20049;-79
2022/09/29 07:31:39;;;;;;;30.17;21.08;;;;;;;17.34;70.00;99381.84;5028140;28;20064;-80
2022/09/29 07:34:17;;;;;;;34.42;20.40;;;;;;;17.90;70.34;99467.19;5010903;28;20061;-79
2022/09/29 07:36:44;;;;;;;33.35;21.02;;;;;;;18.10;70.33;99479.72;5024120;28;20496;-78
2022/09/29 07:39:10;;;;;;;32.70;20.70;;;;;;;18.06;71.03;99478.47;5008843;28;20049;-79
2022/09/29 07:41:37;;;;;;;32.42;21.30;;;;;;;17.98;70.34;99463.44;5008744;28;20049;-79
2022/09/29 07:44:04;;;;;;;36.25;21.73;;;;;;;18.17;71.10;99498.50;5008814;28;20080;-79
2022/09/29 07:46:31;;;;;;;30.63;19.77;;;;;;;18.23;70.48;99500.31;5009530;28;20487;-80
2022/09/29 07:48:58;;;;;;;34.25;21.00;;;;;;;18.24;70.45;99499.28;5027294;28;20055;-80
2022/09/29 07:51:25;;;;;;;39.45;20.35;;;;;;;18.20;69.93;99501.56;5009949;28;20081;-80
2022/09/29 07:53:51;;;;;;;32.53;20.33;;;;;;;18.37;70.34;99515.34;5026301;28;20402;-79
2022/09/29 07:56:20;;;;;;;41.67;21.15;;;;;;;18.34;70.04;99495.09;5009326;28;20443;-78
2022/09/29 07:58:49;;;;;;;27.35;20.00;;;;;;;18.49;70.01;99500.19;5009432;28;20048;-80
2022/09/29 08:01:16;;;;;;;30.85;19.30;;;;;;;18.55;69.65;99501.22;5009200;28;20045;-79
2022/09/29 08:03:56;;;;;;;37.13;19.90;;;;;;;18.48;69.90;99489.66;5009163;28;20049;-80
2022/09/29 08:06:25;;;;;;;30.30;19.08;;;;;;;18.69;69.36;99512.69;5025630;28;20136;-80
2022/09/29 08:08:51;;;;;;;28.67;17.75;;;;;;;18.70;70.40;99512.50;5009522;28;20048;-80
2022/09/29 08:11:32;;;;;;;29.83;19.17;;;;;;;18.66;69.52;99491.63;5025220;28;20063;-80
2022/09/29 08:13:59;;;;;;;32.47;19.23;;;;;;;18.78;68.88;99512.25;5009362;28;20050;-77
2022/09/29 08:16:26;;;;;;;28.50;18.83;;;;;;;18.88;69.05;99524.41;5027318;28;20136;-79
2022/09/29 08:18:53;;;;;;;35.33;18.45;;;;;;;18.82;69.34;99507.28;5009541;28;20076;-79
2022/09/29 08:21:20;;;;;;;33.58;19.00;;;;;;;18.81;69.35;99499.41;5009552;28;20120;-78
2022/09/29 08:23:47;;;;;;;29.20;18.73;;;;;;;18.98;69.45;99539.03;5009615;28;20049;-78
2022/09/29 08:26:17;;;;;;;36.70;19.40;;;;;;;18.85;69.16;99500.63;5009734;28;20054;-80
2022/09/29 08:28:47;;;;;;;33.55;18.25;;;;;;;19.00;69.22;99525.34;5026833;28;20087;-79
2022/09/29 08:31:27;;;;;;;34.95;19.25;;;;;;;19.06;69.38;99534.44;5011739;28;20081;-79
2022/09/29 08:33:56;;;;;;;34.53;19.02;;;;;;;19.16;69.02;99535.59;5009207;28;20041;-80
2022/09/29 08:36:24;;;;;;;28.50;19.08;;;;;;;18.89;69.23;99496.50;5025398;28;20084;-80
2022/09/29 08:38:53;;;;;;;27.27;18.63;;;;;;;19.14;69.22;99529.59;5006620;28;20049;-80
2022/09/29 08:41:38;;;;;;;34.40;18.40;;;;;;;18.98;68.70;99482.56;5001734;28;20048;-79
2022/09/29 08:44:20;;;;;;;26.75;18.52;;;;;;;19.31;68.91;99546.03;5027007;28;20456;-78
2022/09/29 08:47:07;;;;;;;31.00;17.45;;;;;;;19.38;68.42;99527.13;5011015;28;20575;-79
2022/09/29 08:49:46;;;;;;;30.42;16.58;;;;;;;19.45;69.17;99543.25;5026184;28;20049;-80
2022/09/29 08:52:50;;;;;;;33.75;17.88;;;;;;;19.49;68.57;99544.44;5008675;28;20053;-81
2022/09/29 08:55:18;;;;;;;25.90;16.50;;;;;;;19.55;68.36;99548.94;5005362;28;20132;-79
2022/09/29 08:57:53;;;;;;;25.55;15.38;;;;;;;19.24;67.67;99480.69;5026643;28;20089;-79
2022/09/29 09:00:23;;;;;;;30.00;14.07;;;;;;;19.71;67.91;99540.34;5008908;28;20328;-80
2022/09/29 09:03:17;;;;;;;30.38;13.35;;;;;;;19.76;67.28;99537.00;5025857;28;20497;-81
2022/09/29 09:06:46;;;;;;;28.60;13.05;;;;;;;19.78;66.78;99530.34;5008032;28;20053;-79
2022/09/29 09:09:18;;;;;;;19.65;10.40;;;;;;;19.65;66.86;99498.91;4915353;29;20055;-79
2022/09/29 09:12:09;;;;;;;10.93;4.75;;;;;;;20.14;63.74;99541.34;4992612;28;20049;-79
2022/09/29 09:14:36;;;;;;;10.85;3.40;;;;;;;20.22;61.68;99533.78;5008394;28;20081;-81
2022/09/29 09:17:25;;;;;;;11.93;3.85;;;;;;;20.38;60.70;99539.59;5008878;28;20073;-80
2022/09/29 09:20:31;;;;;;;8.70;2.30;;;;;;;20.31;56.83;99493.84;5008381;28;20757;-80
2022/09/29 09:23:16;;;;;;;9.48;2.50;;;;;;;20.06;55.90;99434.69;5008095;28;20527;-80
2022/09/29 09:25:56;;;;;;;12.55;2.80;;;;;;;20.68;54.85;99532.41;5008273;28;20159;-79
2022/09/29 09:28:33;;;;;;;11.27;2.30;;;;;;;20.70;55.02;99511.41;5008205;28;20043;-80
2022/09/29 09:31:21;;;;;;;12.68;2.30;;;;;;;21.07;52.85;99534.75;5026106;28;20148;-78
2022/09/29 09:33:56;;;;;;;7.63;1.70;;;;;;;21.06;53.12;99523.09;5008426;28;20148;-79
2022/09/29 09:36:58;;;;;;;12.73;2.03;;;;;;;21.29;52.12;99537.72;5029112;28;20057;-80
2022/09/29 09:39:46;;;;;;;17.80;2.17;;;;;;;21.46;51.16;99546.81;5021551;28;20030;-79
2022/09/29 09:42:17;;;;;;;6.53;1.95;;;;;;;21.47;52.02;99537.63;5037799;28;20050;-79
2022/09/29 09:44:49;;;;;;;7.45;1.48;;;;;;;21.61;50.45;99532.84;5021154;28;20293;-80
2022/09/29 09:47:33;;;;;;;10.75;2.13;;;;;;;21.69;50.94;99521.69;5031791;28;20042;-80
2022/09/29 09:50:13;;;;;;;6.40;2.00;;;;;;;21.41;50.27;99492.69;5026601;28;20049;-80
2022/09/29 09:53:27;;;;;;;11.40;2.10;;;;;;;21.72;50.05;99521.22;5026130;28;20128;-79
2022/09/29 09:56:20;;;;;;;11.63;2.92;;;;;;;21.84;50.03;99536.59;4989953;28;20051;-79
2022/09/29 09:59:25;;;;;;;6.60;1.98;;;;;;;21.76;50.17;99516.16;5025352;28;20041;-78
2022/09/29 10:01:51;;;;;;;8.45;2.08;;;;;;;21.97;50.35;99545.28;4986611;28;20495;-78
2022/09/29 10:04:18;;;;;;;8.88;1.80;;;;;;;22.04;49.33;99541.59;5005092;28;20057;-78
2022/09/29 10:06:45;;;;;;;7.82;1.73;;;;;;;22.07;49.45;99541.16;5006380;28;20412;-78
2022/09/29 10:09:14;;;;;;;7.03;1.77;;;;;;;22.14;49.22;99533.75;5007771;28;20057;-79
2022/09/29 10:11:44;;;;;;;8.65;2.00;;;;;;;22.04;49.22;99523.53;5007700;28;20442;-79
2022/09/29 10:14:18;;;;;;;5.50;1.55;;;;;;;22.04;49.29;99520.84;5023945;28;20157;-79
2022/09/29 10:16:52;;;;;;;8.55;1.83;;;;;;;22.10;48.96;99516.34;5010719;28;20150;-79
2022/09/29 10:19:42;;;;;;;6.38;1.60;;;;;;;22.04;48.40;99485.69;5011568;28;20107;-79
2022/09/29 10:22:14;;;;;;;11.20;2.38;;;;;;;22.24;48.30;99512.34;5011435;28;20448;-80
2022/09/29 10:24:40;;;;;;;;;;;;;;;22.21;47.97;99518.25;5011376;28;20421;-79
2022/09/29 10:27:09;;;;;;;6.25;2.13;;;;;;;22.11;48.79;99499.06;5011575;28;20032;-79
2022/09/29 10:29:43;;;;;;;6.95;1.83;;;;;;;22.32;47.78;99514.66;5011065;28;20046;-78
2022/09/29 10:32:35;;;;;;;6.25;1.70;;;;;;;22.34;47.55;99512.53;5028107;28;20049;-79
2022/09/29 10:35:15;;;;;;;12.32;2.00;;;;;;;22.23;47.79;99499.06;5010856;28;20093;-78
2022/09/29 10:37:47;;;;;;;5.18;1.55;;;;;;;22.40;47.58;99511.59;5010440;28;20127;-79
2022/09/29 10:40:19;;;;;;;6.30;1.60;;;;;;;22.23;48.08;99505.28;5010637;28;20416;-79
2022/09/29 10:42:49;;;;;;;10.88;2.20;;;;;;;22.29;48.23;99508.94;5026996;28;20132;-77
2022/09/29 10:45:29;;;;;;;11.75;2.25;;;;;;;22.29;48.22;99509.75;5027654;28;20228;-78
2022/09/29 10:47:59;;;;;;;9.20;2.00;;;;;;;22.34;48.20;99503.63;5025339;28;20050;-80
2022/09/29 10:51:00;;;;;;;97.43;8.20;;;;;;;22.31;47.48;99512.22;5009410;28;20076;-80
2022/09/29 10:53:38;;;;;;;8.15;2.00;;;;;;;22.51;46.82;99506.38;4998163;28;20107;-80
2022/09/29 10:56:15;;;;;;;9.80;2.00;;;;;;;22.34;46.20;99487.41;5009426;28;20162;-79
2022/09/29 10:58:50;;;;;;;9.07;1.98;;;;;;;22.50;46.22;99505.56;5009635;28;20058;-82
2022/09/29 11:01:32;;;;;;;5.60;1.52;;;;;;;22.26;46.84;99472.38;5013194;28;20046;-80
2022/09/29 11:04:03;;;;;;;4.95;2.60;;;;;;;22.53;46.84;99504.25;5010767;28;20050;-83
2022/09/29 11:06:31;;;;;;;12.15;2.03;;;;;;;22.89;45.12;99513.00;5005513;28;20053;-80
2022/09/29 11:09:04;;;;;;;4.60;1.20;;;;;;;;;;5010324;28;20053;-79
2022/09/29 11:11:38;;;;;;;9.15;1.40;;;;;;;23.44;44.71;99498.78;5028116;28;20053;-80
2022/09/29 11:14:04;;;;;;;8.93;1.63;;;;;;;23.51;43.65;99449.88;5010234;28;20140;-78
2022/09/29 11:16:34;;;;;;;3.63;0.70;;;;;;;23.55;43.02;99424.75;5009864;28;20054;-79
2022/09/29 11:19:06;;;;;;;5.50;1.23;;;;;;;24.02;43.21;99483.91;5009960;28;20068;-78
2022/09/29 11:21:35;;;;;;;2.40;0.75;;;;;;;24.29;42.06;99493.97;5026148;28;20164;-78
2022/09/29 11:24:19;;;;;;;6.63;1.13;;;;;;;24.39;41.10;99466.97;5008801;28;20053;-78
2022/09/29 11:26:52;;;;;;;4.53;1.23;;;;;;;24.68;40.00;99462.13;5008873;28;20565;-78
2022/09/29 11:29:45;;;;;;;4.15;1.13;;;;;;;24.52;38.13;99397.97;5009735;28;20053;-78
2022/09/29 11:32:33;;;;;;;5.07;1.50;;;;;;;25.10;38.72;99471.47;5004470;28;20071;-79
2022/09/29 11:35:17;;;;;;;4.93;0.85;;;;;;;25.05;38.13;99436.13;5027290;28;20045;-79
2022/09/29 11:37:43;;;;;;;5.28;1.10;;;;;;;25.46;37.65;99469.03;5008919;28;20081;-79
2022/09/29 11:40:10;;;;;;;6.53;1.58;;;;;;;25.56;36.94;99485.41;5010161;28;20141;-79
2022/09/29 11:43:08;;;;;;;4.93;1.30;;;;;;;25.48;37.37;99477.75;5010059;28;20045;-80
2022/09/29 11:45:52;;;;;;;2.55;0.70;;;;;;;25.41;37.20;99471.72;5009928;28;20331;-79
2022/09/29 11:48:37;;;;;;;9.70;1.60;;;;;;;25.48;37.11;99472.31;5010011;28;20053;-79
2022/09/29 11:51:13;;;;;;;4.78;1.13;;;;;;;25.49;37.15;99468.53;5027634;28;20061;-79